Time;durP1;ratioP1;P1;durP2;ratioP2;P2;SDS_P1;SDS_P2;PMS_P1;PMS_P2;Temp;Humidity;BMP_temperature;BMP_pressure;BME280_temperature;BME280_humidity;BME280_pressure;Samples;Min_cycle;Max_cycle;Signal;HPM_P1;HPM_P2
2024/02/12 00:00:49;;;;;;;45.40;22.20;;;6.80;99.90;;;;;;4903053;28;37011;-85
2024/02/12 00:03:20;;;;;;;44.27;22.87;;;6.90;99.90;;;;;;4906947;29;37512;-83
2024/02/12 00:05:47;;;;;;;57.53;25.57;;;7.00;99.90;;;;;;4904149;28;37174;-84
2024/02/12 00:08:15;;;;;;;57.13;25.90;;;7.10;99.90;;;;;;4904472;29;36542;-84
2024/02/12 00:10:42;;;;;;;58.97;27.10;;;7.20;99.90;;;;;;4908437;29;38938;-84
2024/02/12 00:13:09;;;;;;;62.20;28.33;;;7.30;99.90;;;;;;4909299;28;37213;-84
2024/02/12 00:15:35;;;;;;;64.03;28.57;;;7.40;99.90;;;;;;4910141;29;38739;-83
2024/02/12 00:18:01;;;;;;;62.47;29.20;;;7.40;99.90;;;;;;4906550;29;36289;-84
2024/02/12 00:20:29;;;;;;;64.73;31.03;;;7.50;99.90;;;;;;4908207;28;40166;-84
2024/02/12 00:22:56;;;;;;;63.97;29.97;;;7.50;99.90;;;;;;4914270;28;39111;-81
2024/02/12 00:25:24;;;;;;;58.63;30.17;;;7.60;99.90;;;;;;4913270;28;37289;-81
2024/02/12 00:27:51;;;;;;;60.67;30.03;;;7.70;99.90;;;;;;4909915;28;38855;-83
2024/02/12 00:30:18;;;;;;;60.00;29.70;;;7.70;99.90;;;;;;4905571;29;39448;-82
2024/02/12 00:32:44;;;;;;;64.67;31.47;;;7.70;99.90;;;;;;4904817;29;37328;-83
2024/02/12 00:35:11;;;;;;;52.30;28.73;;;7.70;99.90;;;;;;4914242;28;37573;-81
2024/02/12 00:37:37;;;;;;;64.93;30.37;;;7.70;99.90;;;;;;4912355;29;37776;-81
2024/02/12 00:40:08;;;;;;;56.27;29.90;;;7.70;99.90;;;;;;4914226;28;38923;-82
2024/02/12 00:42:38;;;;;;;61.20;28.70;;;7.70;99.90;;;;;;4915704;28;37521;-83
2024/02/12 00:45:09;;;;;;;60.10;29.63;;;7.70;99.90;;;;;;4916292;28;38298;-81
2024/02/12 00:47:36;;;;;;;63.47;30.30;;;7.80;99.90;;;;;;4907726;28;36292;-82
2024/02/12 00:50:06;;;;;;;64.90;29.23;;;7.80;99.90;;;;;;4921633;28;37802;-83
2024/02/12 00:52:37;;;;;;;52.50;27.97;;;7.80;99.90;;;;;;4920229;28;47177;-84
2024/02/12 00:55:07;;;;;;;53.70;28.77;;;7.70;99.90;;;;;;4921382;29;38500;-84
2024/02/12 00:57:35;;;;;;;51.90;28.83;;;7.70;99.90;;;;;;4919802;28;47776;-83
2024/02/12 01:00:12;;;;;;;56.10;28.90;;;7.70;99.90;;;;;;4914151;28;38591;-83
2024/02/12 01:02:40;;;;;;;60.40;29.40;;;7.70;99.90;;;;;;4920522;28;36961;-84
2024/02/12 01:05:08;;;;;;;54.13;29.73;;;7.70;99.90;;;;;;4919384;28;38053;-83
2024/02/12 01:07:35;;;;;;;63.63;30.90;;;7.70;99.90;;;;;;4921280;29;36349;-82
2024/02/12 01:10:03;;;;;;;60.07;29.43;;;7.60;99.90;;;;;;4914539;29;39151;-82
2024/02/12 01:12:30;;;;;;;58.87;29.40;;;7.60;99.90;;;;;;4919147;29;46386;-81
2024/02/12 01:14:56;;;;;;;51.10;28.27;;;7.50;99.90;;;;;;4917215;28;37231;-83
2024/02/12 01:17:23;;;;;;;55.73;28.37;;;7.40;99.90;;;;;;4916563;29;36581;-84
2024/02/12 01:19:54;;;;;;;52.67;27.07;;;7.40;99.90;;;;;;4914169;28;38488;-83
2024/02/12 01:22:33;;;;;;;54.13;28.57;;;7.40;99.90;;;;;;4910584;29;37151;-82
2024/02/12 01:24:59;;;;;;;56.83;27.07;;;7.40;99.90;;;;;;4917606;29;36855;-84
2024/02/12 01:28:00;;;;;;;54.73;29.03;;;7.30;99.90;;;;;;4915456;28;36516;-84
2024/02/12 01:30:28;;;;;;;61.60;28.87;;;7.20;99.90;;;;;;4916752;28;37697;-85
2024/02/12 01:33:08;;;;;;;55.10;27.00;;;7.20;99.90;;;;;;4915590;28;39125;-84
2024/02/12 01:35:37;;;;;;;56.50;28.67;;;7.10;99.90;;;;;;4910394;29;47663;-85
2024/02/12 01:38:08;;;;;;;55.20;27.20;;;7.00;99.90;;;;;;4913506;28;37479;-84
2024/02/12 01:40:35;;;;;;;53.67;26.70;;;6.90;99.90;;;;;;4915553;29;38076;-84
2024/02/12 01:43:04;;;;;;;53.73;27.83;;;6.80;99.90;;;;;;4914127;29;38152;-85
2024/02/12 01:45:33;;;;;;;60.23;27.63;;;6.80;99.90;;;;;;4916207;28;48749;-84
2024/02/12 01:48:01;;;;;;;58.00;28.50;;;6.70;99.90;;;;;;4914969;28;37223;-84
2024/02/12 01:50:28;;;;;;;50.80;25.83;;;6.70;99.90;;;;;;4906665;28;47178;-84
2024/02/12 01:52:54;;;;;;;50.83;27.40;;;6.60;99.90;;;;;;4905994;28;39498;-85
2024/02/12 01:55:23;;;;;;;61.27;29.20;;;6.50;99.90;;;;;;4906730;28;38010;-85
2024/02/12 01:57:52;;;;;;;63.67;29.67;;;6.40;99.90;;;;;;4908382;29;36825;-85
2024/02/12 02:03:00;;;;;;;69.63;31.27;;;6.40;99.90;;;;;;5280992;23;20052;-78
2024/02/12 02:05:27;;;;;;;63.93;29.53;;;6.50;99.90;;;;;;4903542;28;38513;-78
2024/02/12 02:07:56;;;;;;;56.63;29.33;;;6.60;99.90;;;;;;4914347;28;38119;-75
2024/02/12 02:10:23;;;;;;;63.40;30.00;;;6.70;99.90;;;;;;4911129;28;38651;-78
2024/02/12 02:12:49;;;;;;;60.03;30.63;;;6.80;99.90;;;;;;4908762;29;38890;-76
2024/02/12 02:15:16;;;;;;;65.50;30.87;;;6.90;99.90;;;;;;4907125;28;39076;-78
2024/02/12 02:17:42;;;;;;;74.60;32.37;;;6.90;99.90;;;;;;4902963;29;37939;-77
2024/02/12 02:20:10;;;;;;;60.77;30.80;;;6.90;99.90;;;;;;4904111;28;37345;-76
2024/02/12 02:22:37;;;;;;;56.57;28.23;;;6.90;99.90;;;;;;4908321;29;37770;-76
2024/02/12 02:25:05;;;;;;;54.00;28.20;;;7.00;99.90;;;;;;4906660;29;39033;-77
2024/02/12 02:27:33;;;;;;;59.80;29.93;;;7.00;99.90;;;;;;4905651;29;38410;-77
2024/02/12 02:29:59;;;;;;;69.40;31.67;;;7.00;99.90;;;;;;4906388;29;40077;-77
2024/02/12 02:32:26;;;;;;;62.37;30.53;;;7.00;99.90;;;;;;4905431;29;38332;-76
2024/02/12 02:34:55;;;;;;;64.77;31.40;;;6.90;99.90;;;;;;4908111;28;38722;-76
2024/02/12 02:37:21;;;;;;;65.53;32.03;;;6.90;99.90;;;;;;4901918;29;38136;-77
2024/02/12 02:39:47;;;;;;;66.27;32.50;;;7.00;99.90;;;;;;4909538;29;37807;-76
2024/02/12 02:42:13;;;;;;;68.37;32.10;;;7.00;99.90;;;;;;4910494;28;39859;-76
2024/02/12 02:44:41;;;;;;;60.10;31.30;;;7.10;99.90;;;;;;4911606;29;38961;-77
2024/02/12 02:47:10;;;;;;;64.17;32.87;;;7.10;99.90;;;;;;4910092;28;37948;-77
2024/02/12 02:49:37;;;;;;;68.33;33.40;;;7.10;99.90;;;;;;4905721;29;39605;-77
2024/02/12 02:52:04;;;;;;;63.50;31.40;;;7.20;99.90;;;;;;4907160;28;38209;-76
2024/02/12 02:54:31;;;;;;;65.10;33.90;;;7.20;99.90;;;;;;4907690;29;38808;-76
2024/02/12 02:56:57;;;;;;;62.67;33.27;;;7.20;99.90;;;;;;4904754;29;38111;-77
2024/02/12 02:59:24;;;;;;;59.37;32.07;;;7.20;99.90;;;;;;4908338;29;39181;-77
2024/02/12 03:01:50;;;;;;;58.97;32.37;;;7.30;99.90;;;;;;4908938;28;39375;-77
2024/02/12 03:04:16;;;;;;;73.63;34.60;;;7.20;99.90;;;;;;4908674;28;39220;-76
2024/02/12 03:06:43;;;;;;;62.07;31.77;;;7.30;99.90;;;;;;4909555;29;38414;-76
2024/02/12 03:09:10;;;;;;;59.80;32.53;;;7.30;99.90;;;;;;4911299;29;42212;-76
2024/02/12 03:11:39;;;;;;;63.37;33.53;;;7.30;99.90;;;;;;4923605;28;39262;-78
2024/02/12 03:14:08;;;;;;;66.13;32.47;;;7.30;99.90;;;;;;4903017;29;38919;-76
2024/02/12 03:16:36;;;;;;;60.43;33.03;;;7.30;99.90;;;;;;4906078;29;37243;-78
2024/02/12 03:19:02;;;;;;;60.93;30.40;;;7.30;99.90;;;;;;4909313;29;39710;-77
2024/02/12 03:21:28;;;;;;;64.17;33.10;;;7.30;99.90;;;;;;4906628;29;38674;-76
2024/02/12 03:23:54;;;;;;;64.37;32.70;;;7.30;99.90;;;;;;4910144;29;38785;-76
2024/02/12 03:26:20;;;;;;;60.50;31.73;;;7.40;99.90;;;;;;4906918;29;37912;-77
2024/02/12 03:28:49;;;;;;;64.37;33.63;;;7.40;99.90;;;;;;4910177;29;40376;-76
2024/02/12 03:31:15;;;;;;;61.53;32.80;;;7.40;99.90;;;;;;4907617;29;39811;-76
2024/02/12 03:33:42;;;;;;;65.40;32.50;;;7.40;99.90;;;;;;4910456;29;39407;-76
2024/02/12 03:36:11;;;;;;;61.77;31.43;;;7.40;99.90;;;;;;4908400;28;38218;-77
2024/02/12 03:38:37;;;;;;;61.90;31.83;;;7.50;99.90;;;;;;4907391;29;38899;-77
2024/02/12 03:41:05;;;;;;;63.17;33.00;;;7.50;99.90;;;;;;4904353;29;39986;-77
2024/02/12 03:43:31;;;;;;;61.47;32.07;;;7.60;99.90;;;;;;4908893;29;39871;-76
2024/02/12 03:45:59;;;;;;;73.40;32.77;;;7.60;99.90;;;;;;4906745;29;37698;-77
2024/02/12 04:02:08;;;;;;;55.17;27.27;;;7.80;99.90;;;;;;4903953;28;38880;-76
2024/02/12 04:04:34;;;;;;;55.23;26.83;;;7.80;99.90;;;;;;4906629;29;38350;-77
2024/02/12 04:07:02;;;;;;;50.33;25.40;;;7.90;99.90;;;;;;4905043;29;36460;-77
2024/02/12 04:09:28;;;;;;;49.27;23.73;;;7.90;99.90;;;;;;4906749;29;47195;-76
2024/02/12 04:11:54;;;;;;;49.60;23.17;;;7.90;99.90;;;;;;4903710;29;37892;-77
2024/02/12 04:14:20;;;;;;;38.07;22.27;;;7.90;99.90;;;;;;4903107;28;38899;-76
2024/02/12 04:16:51;;;;;;;40.13;20.90;;;7.90;99.90;;;;;;4906658;29;36484;-77
2024/02/12 04:19:22;;;;;;;41.73;19.53;;;7.90;99.90;;;;;;4901616;29;39083;-77
2024/02/12 04:21:52;;;;;;;32.43;18.10;;;7.90;99.90;;;;;;4900711;29;39329;-77
2024/02/12 04:24:19;;;;;;;35.80;17.47;;;7.90;99.90;;;;;;4901131;28;38674;-77
2024/02/12 04:26:46;;;;;;;28.67;15.40;;;7.90;99.90;;;;;;4902474;28;37546;-77
2024/02/12 04:29:14;;;;;;;30.87;14.93;;;7.90;99.90;;;;;;4902198;28;37656;-77
2024/02/12 04:31:41;;;;;;;28.80;14.33;;;7.90;99.90;;;;;;4898827;29;38508;-77
2024/02/12 04:34:09;;;;;;;27.97;14.03;;;7.90;99.90;;;;;;4907605;29;37189;-77
2024/02/12 04:36:42;;;;;;;26.13;14.27;;;7.90;99.90;;;;;;4905390;29;37613;-77
2024/02/12 04:39:13;;;;;;;28.00;12.90;;;7.90;99.90;;;;;;4909121;29;38647;-77
2024/02/12 04:41:41;;;;;;;27.07;12.97;;;7.90;99.90;;;;;;4906956;29;38996;-78
2024/02/12 04:44:08;;;;;;;26.07;13.90;;;7.90;99.90;;;;;;4903203;29;39065;-76
2024/02/12 04:46:37;;;;;;;24.07;12.63;;;7.90;99.90;;;;;;4901718;28;37575;-77
2024/02/12 04:49:04;;;;;;;17.17;11.93;;;7.90;99.90;;;;;;4902670;29;40570;-77
2024/02/12 04:51:31;;;;;;;17.80;11.37;;;7.90;99.90;;;;;;4901721;29;39836;-77
2024/02/12 04:53:58;;;;;;;16.93;10.43;;;7.90;99.90;;;;;;4914918;29;38902;-77
2024/02/12 04:56:24;;;;;;;21.93;10.87;;;7.90;99.90;;;;;;4899394;29;39844;-77
2024/02/12 04:58:51;;;;;;;18.83;9.53;;;7.90;99.90;;;;;;4900551;29;39534;-77
2024/02/12 05:01:18;;;;;;;16.13;9.07;;;7.90;99.90;;;;;;4903067;29;38757;-77
2024/02/12 05:03:46;;;;;;;18.33;8.60;;;7.80;99.90;;;;;;4905330;29;38705;-77
2024/02/12 05:06:16;;;;;;;14.23;7.53;;;7.80;99.90;;;;;;4904360;28;37600;-77
2024/02/12 05:08:44;;;;;;;17.33;8.40;;;7.70;99.90;;;;;;4903916;28;38673;-76
2024/02/12 05:11:10;;;;;;;13.67;7.63;;;7.70;99.90;;;;;;4904857;29;38299;-77
2024/02/12 05:13:37;;;;;;;13.43;7.00;;;7.70;99.90;;;;;;4903229;29;38508;-76
2024/02/12 05:16:07;;;;;;;10.03;6.90;;;7.60;99.90;;;;;;4902307;28;38292;-77
2024/02/12 05:24:06;;;;;;;12.10;6.80;;;7.50;99.90;;;;;;4903941;28;38729;-77
2024/02/12 05:26:32;;;;;;;11.83;7.60;;;7.50;99.90;;;;;;4902891;29;36786;-77
2024/02/12 05:28:59;;;;;;;18.13;7.97;;;7.50;99.90;;;;;;4906194;29;38757;-77
2024/02/12 05:31:25;;;;;;;10.37;7.20;;;7.50;99.90;;;;;;4907080;28;38116;-77
2024/02/12 05:33:51;;;;;;;14.50;8.33;;;7.50;99.90;;;;;;4905245;28;38115;-77
2024/02/12 05:36:19;;;;;;;13.30;8.37;;;7.50;99.90;;;;;;4909772;28;37387;-77
2024/02/12 05:38:46;;;;;;;12.90;8.33;;;7.50;99.90;;;;;;4911549;29;39704;-77
2024/02/12 05:41:13;;;;;;;14.43;8.63;;;7.40;99.90;;;;;;4903716;29;38990;-77
2024/02/12 05:43:39;;;;;;;16.70;9.27;;;7.40;99.90;;;;;;4903226;29;40163;-77
2024/02/12 05:46:06;;;;;;;16.33;10.37;;;7.30;99.90;;;;;;4903281;29;36035;-76
2024/02/12 05:48:34;;;;;;;18.03;11.30;;;7.20;99.90;;;;;;4903070;29;38960;-77
2024/02/12 05:51:00;;;;;;;19.03;12.10;;;7.20;99.90;;;;;;4905193;29;39756;-76
2024/02/12 05:53:28;;;;;;;21.73;13.07;;;7.20;99.90;;;;;;4906953;29;39000;-76
2024/02/12 05:55:58;;;;;;;23.97;13.47;;;7.20;99.90;;;;;;4908580;28;37164;-77
2024/02/12 05:58:27;;;;;;;24.20;15.60;;;7.10;99.90;;;;;;4905676;28;38133;-77
2024/02/12 06:00:56;;;;;;;26.33;15.17;;;7.10;99.90;;;;;;4905760;29;38731;-76
2024/02/12 06:03:22;;;;;;;30.30;17.20;;;7.10;99.90;;;;;;4906922;28;38020;-77
2024/02/12 06:05:52;;;;;;;27.43;16.80;;;7.10;99.90;;;;;;4906946;29;37795;-76
2024/02/12 06:08:18;;;;;;;31.23;16.17;;;7.10;99.90;;;;;;4917698;28;39394;-77
2024/02/12 06:10:44;;;;;;;27.13;16.27;;;7.00;99.90;;;;;;4902654;28;39015;-77
2024/02/12 06:13:10;;;;;;;31.73;17.97;;;7.00;99.90;;;;;;4910042;28;36820;-76
2024/02/12 06:15:36;;;;;;;35.60;18.80;;;7.00;99.90;;;;;;4913642;28;37861;-76
2024/02/12 06:18:03;;;;;;;32.13;18.30;;;7.00;99.90;;;;;;4906217;28;40071;-79
2024/02/12 06:20:29;;;;;;;40.20;21.03;;;6.90;99.90;;;;;;4908984;28;38831;-78
2024/02/12 06:22:56;;;;;;;39.37;22.03;;;6.90;99.90;;;;;;4916276;28;36978;-78
2024/02/12 06:25:24;;;;;;;40.73;22.23;;;6.80;99.90;;;;;;4925258;28;38453;-76
2024/02/12 06:27:50;;;;;;;42.97;22.03;;;6.80;99.90;;;;;;4909532;29;39005;-78
2024/02/12 06:30:16;;;;;;;48.47;24.47;;;6.80;99.90;;;;;;4908541;29;40323;-78
2024/02/12 06:32:42;;;;;;;50.13;24.40;;;6.80;99.90;;;;;;4911048;28;36841;-79
2024/02/12 06:35:11;;;;;;;48.33;23.43;;;6.80;99.90;;;;;;4898564;28;37828;-78
2024/02/12 06:37:40;;;;;;;43.30;22.83;;;6.80;99.90;;;;;;4909332;28;38593;-78
2024/02/12 06:40:09;;;;;;;46.53;25.37;;;6.80;99.90;;;;;;4906559;29;38496;-78
2024/02/12 06:42:35;;;;;;;45.17;24.40;;;6.80;99.90;;;;;;4906924;29;37793;-75
2024/02/12 06:45:02;;;;;;;48.53;24.43;;;6.80;99.90;;;;;;4904439;29;35507;-78
2024/02/12 06:47:29;;;;;;;47.50;24.57;;;6.80;99.90;;;;;;4910368;28;39374;-78
2024/02/12 06:49:55;;;;;;;52.83;24.97;;;6.80;99.90;;;;;;4908451;28;38735;-76
2024/02/12 06:52:21;;;;;;;46.10;24.33;;;6.80;99.90;;;;;;4908219;29;39808;-76
2024/02/12 06:54:48;;;;;;;46.67;25.03;;;6.70;99.90;;;;;;4907268;28;38289;-76
2024/02/12 06:57:15;;;;;;;46.63;24.73;;;6.70;99.90;;;;;;4901443;29;39582;-76
2024/02/12 06:59:42;;;;;;;52.73;26.57;;;6.70;99.90;;;;;;4906594;29;38815;-76
2024/02/12 07:02:10;;;;;;;47.67;25.57;;;6.60;99.90;;;;;;4902515;29;39974;-76
2024/02/12 07:04:36;;;;;;;54.57;27.07;;;6.50;99.90;;;;;;4908594;28;37665;-75
2024/02/12 07:07:03;;;;;;;47.80;24.90;;;6.50;99.90;;;;;;4907751;28;40031;-76
2024/02/12 07:09:29;;;;;;;49.83;27.73;;;6.40;99.90;;;;;;4907280;28;38355;-77
2024/02/12 07:11:55;;;;;;;55.57;25.43;;;6.40;99.90;;;;;;4908503;29;37485;-76
2024/02/12 07:14:21;;;;;;;58.97;27.83;;;6.30;99.90;;;;;;4908489;29;36132;-76
2024/02/12 07:16:48;;;;;;;55.27;27.43;;;6.30;99.90;;;;;;4902713;29;40150;-76
2024/02/12 07:19:14;;;;;;;52.90;28.13;;;6.20;99.90;;;;;;4908506;28;39064;-77
2024/02/12 07:21:41;;;;;;;49.93;26.47;;;6.20;99.90;;;;;;4907646;28;38774;-77
2024/02/12 07:24:07;;;;;;;56.63;27.47;;;6.20;99.90;;;;;;4902452;29;37249;-77
2024/02/12 07:26:33;;;;;;;55.67;26.30;;;6.20;99.90;;;;;;4904958;28;38744;-76
2024/02/12 07:28:59;;;;;;;60.93;29.27;;;6.10;99.90;;;;;;4908492;29;37369;-77
2024/02/12 07:31:26;;;;;;;63.10;28.27;;;6.10;99.90;;;;;;4911445;29;37352;-76
2024/02/12 07:33:53;;;;;;;64.63;28.57;;;6.10;99.90;;;;;;4912723;29;38748;-76
2024/02/12 07:36:19;;;;;;;56.53;28.77;;;6.20;99.90;;;;;;4902492;29;39553;-77
2024/02/12 07:38:45;;;;;;;48.00;26.40;;;6.10;99.90;;;;;;4907672;29;37256;-76
2024/02/12 07:41:14;;;;;;;54.63;26.67;;;6.10;99.90;;;;;;4909780;28;38320;-78
2024/02/12 07:43:42;;;;;;;58.10;28.30;;;6.10;99.90;;;;;;4912163;29;36723;-79
2024/02/12 07:46:09;;;;;;;54.30;25.90;;;6.10;99.90;;;;;;4907588;29;40088;-76
2024/02/12 07:48:35;;;;;;;69.00;30.40;;;6.10;99.90;;;;;;4906478;28;38293;-77
2024/02/12 07:51:04;;;;;;;64.53;29.53;;;6.00;99.90;;;;;;4900686;29;38260;-77
2024/02/12 07:53:30;;;;;;;58.50;30.53;;;6.00;99.90;;;;;;4905577;29;47223;-77
2024/02/12 07:55:57;;;;;;;59.33;27.87;;;6.10;99.90;;;;;;4907342;29;40389;-77
2024/02/12 07:58:24;;;;;;;52.50;27.13;;;6.10;99.90;;;;;;4909670;29;37968;-77
2024/02/12 08:00:50;;;;;;;59.47;29.57;;;6.10;99.90;;;;;;4905047;28;37914;-77
2024/02/12 08:03:18;;;;;;;50.67;26.20;;;6.10;99.90;;;;;;4902966;29;39309;-77
2024/02/12 08:05:48;;;;;;;50.90;27.17;;;6.10;99.90;;;;;;4905454;29;39107;-77
2024/02/12 08:08:14;;;;;;;56.97;25.50;;;6.10;99.90;;;;;;4901971;29;38861;-76
2024/02/12 08:10:41;;;;;;;56.23;27.33;;;6.20;99.90;;;;;;4905617;28;39320;-77
2024/02/12 08:13:08;;;;;;;50.90;25.03;;;6.20;99.90;;;;;;4902048;29;38593;-77
2024/02/12 08:15:35;;;;;;;46.70;22.63;;;6.20;99.90;;;;;;4905502;29;37480;-77
2024/02/12 08:18:06;;;;;;;41.17;20.30;;;6.20;99.90;;;;;;4916182;28;38726;-76
2024/02/12 08:20:35;;;;;;;41.53;19.63;;;6.30;99.90;;;;;;4935913;28;47169;-77
2024/02/12 08:23:03;;;;;;;38.17;19.17;;;6.40;99.90;;;;;;4937805;28;38015;-77
2024/02/12 08:25:29;;;;;;;36.43;19.17;;;6.40;99.90;;;;;;4917672;28;48504;-75
2024/02/12 08:27:55;;;;;;;39.97;17.20;;;6.50;99.90;;;;;;4908691;29;39991;-77
2024/02/12 08:30:22;;;;;;;38.47;16.53;;;6.50;99.90;;;;;;4911578;28;38761;-77
2024/02/12 08:32:48;;;;;;;38.60;16.73;;;6.60;99.90;;;;;;4911215;29;38064;-76
2024/02/12 08:35:14;;;;;;;37.73;17.13;;;6.60;99.90;;;;;;4913287;28;39029;-77
2024/02/12 08:37:40;;;;;;;39.17;17.23;;;6.70;99.90;;;;;;4906455;28;38530;-76
2024/02/12 08:40:07;;;;;;;35.27;15.83;;;6.70;99.90;;;;;;4909630;29;37028;-78
2024/02/12 08:42:33;;;;;;;32.63;14.47;;;6.80;99.90;;;;;;4915998;29;36303;-76
2024/02/12 08:45:00;;;;;;;35.63;14.17;;;6.90;99.90;;;;;;4912598;28;40753;-76
2024/02/12 08:47:32;;;;;;;35.53;13.50;;;6.90;99.90;;;;;;4918834;29;37693;-76
2024/02/12 08:49:59;;;;;;;34.65;13.73;;;7.00;99.90;;;;;;4912151;28;38946;-75
2024/02/12 08:52:25;;;;;;;21.97;11.93;;;7.10;99.90;;;;;;4900839;28;39196;-76
2024/02/12 08:54:51;;;;;;;28.93;12.27;;;7.20;99.90;;;;;;4910143;29;39977;-76
2024/02/12 08:57:17;;;;;;;29.60;11.23;;;7.20;99.90;;;;;;4910059;28;40124;-76
2024/02/12 08:59:44;;;;;;;29.63;11.47;;;7.30;99.90;;;;;;4910825;29;39023;-75
2024/02/12 09:02:10;;;;;;;28.70;12.10;;;7.50;99.90;;;;;;4922921;28;35398;-77
2024/02/12 09:04:36;;;;;;;20.47;10.97;;;7.60;99.90;;;;;;4913408;28;38519;-76
2024/02/12 09:07:03;;;;;;;23.80;10.00;;;7.80;99.90;;;;;;4911215;28;38383;-77
2024/02/12 09:09:29;;;;;;;28.30;10.17;;;8.00;99.90;;;;;;4913607;28;39177;-77
2024/02/12 09:11:56;;;;;;;30.30;12.43;;;8.10;99.90;;;;;;4909041;29;38803;-76
2024/02/12 09:14:22;;;;;;;26.93;10.53;;;8.30;99.90;;;;;;4913811;28;40899;-76
2024/02/12 09:16:49;;;;;;;21.60;10.27;;;8.40;99.90;;;;;;4913824;28;38423;-77
2024/02/12 09:19:16;;;;;;;29.50;10.27;;;8.50;99.90;;;;;;4911629;28;38659;-76
2024/02/12 09:21:44;;;;;;;18.77;9.23;;;8.50;99.90;;;;;;4909913;29;38213;-76
2024/02/12 09:24:11;;;;;;;17.70;9.83;;;8.60;99.90;;;;;;4914508;28;39515;-76
2024/02/12 09:26:38;;;;;;;19.40;9.03;;;8.60;99.90;;;;;;4907720;29;38471;-76
2024/02/12 09:29:04;;;;;;;23.07;7.93;;;8.60;99.90;;;;;;4906408;28;39121;-77
2024/02/12 09:31:33;;;;;;;27.53;8.20;;;8.70;99.90;;;;;;4911714;28;37473;-76
2024/02/12 09:34:02;;;;;;;19.60;7.23;;;8.80;99.90;;;;;;4912184;28;38686;-75
2024/02/12 09:36:29;;;;;;;19.27;6.23;;;8.90;99.90;;;;;;4910655;28;47286;-75
2024/02/12 09:38:55;;;;;;;17.03;6.37;;;8.90;99.90;;;;;;4906730;29;36976;-74
2024/02/12 09:41:26;;;;;;;18.67;6.90;;;9.00;99.90;;;;;;4910917;28;36801;-76
2024/02/12 09:43:57;;;;;;;14.83;6.47;;;9.10;99.90;;;;;;4905231;29;38776;-75
2024/02/12 09:46:23;;;;;;;16.70;5.73;;;9.20;99.90;;;;;;4912726;28;37440;-76
2024/02/12 09:48:49;;;;;;;18.00;5.67;;;9.20;99.90;;;;;;4907201;28;38332;-76
2024/02/12 09:51:17;;;;;;;12.60;5.70;;;9.20;99.90;;;;;;4905336;28;36826;-76
2024/02/12 09:53:44;;;;;;;19.70;5.83;;;9.20;99.90;;;;;;4910089;29;37711;-76
2024/02/12 09:56:12;;;;;;;21.37;6.30;;;9.20;99.90;;;;;;4903283;28;37535;-77
2024/02/12 09:58:38;;;;;;;19.43;5.57;;;9.20;99.90;;;;;;4911741;29;36845;-76
2024/02/12 10:01:05;;;;;;;16.33;5.43;;;9.20;99.90;;;;;;4908832;28;36959;-76
2024/02/12 10:03:32;;;;;;;16.93;5.63;;;9.40;99.90;;;;;;4906763;29;39761;-76
2024/02/12 10:05:58;;;;;;;18.43;6.77;;;9.40;99.90;;;;;;4908937;29;39732;-76
2024/02/12 10:08:26;;;;;;;16.23;6.07;;;9.40;99.90;;;;;;4909086;28;38994;-77
2024/02/12 10:10:53;;;;;;;19.77;6.20;;;9.40;99.90;;;;;;4912200;29;37755;-76
2024/02/12 10:13:20;;;;;;;20.67;5.90;;;9.40;99.90;;;;;;4915073;28;39603;-77
2024/02/12 10:15:47;;;;;;;13.23;6.43;;;9.40;99.90;;;;;;4913681;29;37429;-77
2024/02/12 10:18:15;;;;;;;14.13;6.40;;;9.50;99.90;;;;;;4913507;28;38911;-76
2024/02/12 10:20:43;;;;;;;19.37;6.80;;;9.50;99.90;;;;;;4909658;28;37361;-76
2024/02/12 10:23:13;;;;;;;19.93;7.03;;;9.70;99.90;;;;;;4908115;28;39559;-76
2024/02/12 10:25:45;;;;;;;19.33;7.63;;;10.00;99.90;;;;;;4911111;29;39428;-76
2024/02/12 10:28:23;;;;;;;13.60;6.90;;;10.10;99.90;;;;;;4911532;29;37915;-76
2024/02/12 10:30:49;;;;;;;20.40;7.43;;;10.10;99.90;;;;;;4910447;29;37902;-76
2024/02/12 10:33:16;;;;;;;17.73;6.67;;;10.20;99.90;;;;;;4906683;28;39745;-75
2024/02/12 10:35:46;;;;;;;17.67;7.60;;;10.10;99.90;;;;;;4919467;28;38312;-76
2024/02/12 10:38:14;;;;;;;14.57;7.23;;;10.10;99.90;;;;;;4908127;28;41066;-75
2024/02/12 10:40:55;;;;;;;16.53;7.50;;;9.90;99.90;;;;;;4911144;29;38338;-76
2024/02/12 10:43:23;;;;;;;16.77;4.93;;;9.70;99.90;;;;;;4904533;29;38616;-75
2024/02/12 10:45:53;;;;;;;13.73;5.50;;;9.50;99.90;;;;;;4909324;29;39185;-76
2024/02/12 10:48:20;;;;;;;13.43;5.30;;;9.50;99.90;;;;;;4912727;28;38159;-75
2024/02/12 10:50:47;;;;;;;14.93;4.50;;;9.60;99.90;;;;;;4913750;29;37863;-76
2024/02/12 10:53:18;;;;;;;11.40;4.63;;;9.60;99.90;;;;;;4911706;28;40094;-76
2024/02/12 10:55:45;;;;;;;13.40;4.27;;;9.90;99.90;;;;;;4911413;29;38817;-75
2024/02/12 10:58:12;;;;;;;14.23;4.13;;;10.10;99.90;;;;;;4910228;29;37398;-76
2024/02/12 11:00:40;;;;;;;9.77;3.50;;;10.20;99.90;;;;;;4909135;29;38202;-77
2024/02/12 11:03:07;;;;;;;12.87;3.60;;;10.30;99.90;;;;;;4909508;28;39242;-76
2024/02/12 11:05:37;;;;;;;9.40;3.30;;;10.50;99.90;;;;;;4917724;28;38081;-76
2024/02/12 11:08:05;;;;;;;10.73;3.50;;;10.50;99.90;;;;;;4916103;28;38006;-76
2024/02/12 11:10:35;;;;;;;11.00;3.67;;;10.80;99.90;;;;;;4916277;28;38146;-77
2024/02/12 11:13:05;;;;;;;10.35;2.70;;;10.90;91.50;;;;;;4918665;29;39247;-76
2024/02/12 11:15:32;;;;;;;11.07;2.50;;;10.80;64.70;;;;;;4915390;28;49213;-77
2024/02/12 11:17:58;;;;;;;11.40;3.53;;;10.80;69.60;;;;;;4907783;29;38531;-77
2024/02/12 11:20:27;;;;;;;10.85;2.60;;;10.80;79.20;;;;;;4903455;28;35883;-75
2024/02/12 11:23:04;;;;;;;5.85;2.38;;;11.00;80.60;;;;;;4894426;28;38645;-76
2024/02/12 11:25:31;;;;;;;7.65;2.30;;;11.10;65.50;;;;;;4900769;28;47509;-76
2024/02/12 11:28:00;;;;;;;10.40;2.25;;;11.20;46.60;;;;;;4904721;29;37074;-75
2024/02/12 11:30:26;;;;;;;9.70;2.08;;;11.10;40.60;;;;;;4907834;28;37745;-75
2024/02/12 11:32:57;;;;;;;7.20;1.77;;;11.10;29.10;;;;;;4904341;29;37639;-75
2024/02/12 11:35:24;;;;;;;12.90;1.73;;;11.10;19.60;;;;;;4905822;28;37534;-76
2024/02/12 11:37:57;;;;;;;10.07;2.13;;;10.90;19.60;;;;;;4908539;29;37295;-76
2024/02/12 11:40:23;;;;;;;7.90;1.70;;;10.90;29.70;;;;;;4908797;28;36171;-76
2024/02/12 11:42:50;;;;;;;12.95;1.75;;;11.00;38.80;;;;;;4900960;29;38844;-75
2024/02/12 11:45:23;;;;;;;8.10;1.80;;;11.00;15.30;;;;;;4904931;28;37739;-76
2024/02/12 11:47:51;;;;;;;11.95;2.90;;;10.90;18.60;;;;;;4904210;29;37866;-76
2024/02/12 11:50:25;;;;;;;7.87;1.90;;;10.90;12.70;;;;;;4906886;28;38133;-77
2024/02/12 11:52:55;;;;;;;8.23;1.70;;;11.00;14.70;;;;;;4917983;29;37669;-76
2024/02/12 11:55:21;;;;;;;9.27;1.50;;;11.20;28.00;;;;;;4903777;28;38538;-76
2024/02/12 11:57:48;;;;;;;7.60;2.00;;;11.20;9.50;;;;;;4904187;28;38157;-76
2024/02/12 12:00:21;;;;;;;8.95;2.08;;;11.30;21.90;;;;;;4909898;29;36954;-76
2024/02/12 12:02:52;;;;;;;10.00;1.85;;;11.40;22.10;;;;;;4903984;29;47088;-76
2024/02/12 12:05:23;;;;;;;6.82;2.03;;;11.60;24.80;;;;;;4908463;29;38410;-76
2024/02/12 12:07:50;;;;;;;12.23;2.30;;;11.70;7.90;;;;;;4903025;28;38588;-77
2024/02/12 12:10:24;;;;;;;9.88;1.70;;;11.70;4.90;;;;;;4907740;28;37078;-76
2024/02/12 12:12:51;;;;;;;6.82;1.40;;;11.60;1.00;;;;;;4921856;28;38497;-76
2024/02/12 12:15:18;;;;;;;7.75;1.50;;;11.70;1.00;;;;;;4910465;28;38661;-77
2024/02/12 12:17:46;;;;;;;6.88;1.70;;;11.70;1.00;;;;;;4914511;29;37055;-77
2024/02/12 12:20:14;;;;;;;8.20;1.90;;;11.80;1.00;;;;;;4910890;28;36907;-76
2024/02/12 12:22:40;;;;;;;9.77;1.83;;;11.50;1.00;;;;;;4912452;29;37607;-76
2024/02/12 12:25:09;;;;;;;8.10;1.50;;;11.40;1.00;;;;;;4911256;29;37347;-76
2024/02/12 12:27:38;;;;;;;9.55;1.95;;;11.50;1.00;;;;;;4909660;29;38383;-76
2024/02/12 12:30:16;;;;;;;10.65;1.55;;;11.60;1.00;;;;;;4911025;29;36469;-77
2024/02/12 12:32:44;;;;;;;12.85;2.08;;;11.60;1.00;;;;;;4907300;29;47112;-77
2024/02/12 12:35:10;;;;;;;10.18;1.60;;;11.70;1.00;;;;;;4904990;28;38223;-77
2024/02/12 12:37:40;;;;;;;5.85;1.25;;;11.50;1.00;;;;;;4905702;28;39162;-77
2024/02/12 12:40:20;;;;;;;5.47;1.25;;;11.40;1.00;;;;;;4912913;29;36239;-78
2024/02/12 12:42:48;;;;;;;5.03;1.40;;;11.40;1.00;;;;;;4910236;29;38095;-77
2024/02/12 12:45:16;;;;;;;7.15;1.60;;;11.40;1.00;;;;;;4913117;29;38635;-77
2024/02/12 12:47:42;;;;;;;7.30;1.63;;;11.30;1.00;;;;;;4908206;29;37246;-77
2024/02/12 12:50:10;;;;;;;3.85;0.98;;;11.40;1.00;;;;;;4910787;28;37395;-78
2024/02/12 12:52:38;;;;;;;6.40;1.55;;;11.40;1.00;;;;;;4912826;29;38082;-78
2024/02/12 12:55:07;;;;;;;11.70;1.58;;;11.30;1.00;;;;;;4914331;29;37627;-77
2024/02/12 12:57:37;;;;;;;7.10;1.38;;;11.20;1.00;;;;;;4910529;29;47380;-77
2024/02/12 13:00:05;;;;;;;6.10;1.02;;;11.00;1.00;;;;;;4911841;28;36888;-77
2024/02/12 13:02:35;;;;;;;6.53;1.42;;;11.00;1.00;;;;;;4912176;29;38223;-77
2024/02/12 13:05:04;;;;;;;7.40;1.48;;;11.10;1.00;;;;;;4910506;29;37555;-77